Time;durP1;ratioP1;P1;durP2;ratioP2;P2;SDS_P1;SDS_P2;PMS_P1;PMS_P2;Temp;Humidity;BMP_temperature;BMP_pressure;BME280_temperature;BME280_humidity;BME280_pressure;Samples;Min_cycle;Max_cycle;Signal;HPM_P1;HPM_P2
2022/03/03 00:01:55;;;;;;;27.95;17.98;;;;;;;2.87;59.03;101956.09;5022653;28;20017;-73
2022/03/03 00:04:21;;;;;;;27.25;17.77;;;;;;;2.81;58.55;101961.44;5031000;28;20082;-73
2022/03/03 00:06:46;;;;;;;27.45;17.67;;;;;;;2.74;59.40;101952.91;5013040;28;20469;-73
2022/03/03 00:09:11;;;;;;;29.38;18.45;;;;;;;2.68;59.79;101950.47;5005819;28;20038;-73
2022/03/03 00:11:38;;;;;;;26.23;17.33;;;;;;;2.62;59.42;101947.16;5011601;28;20463;-73
2022/03/03 00:14:03;;;;;;;25.27;17.48;;;;;;;2.58;60.47;101951.56;5026598;28;20490;-73
2022/03/03 00:16:29;;;;;;;25.05;17.73;;;;;;;2.57;60.50;101946.41;5010944;28;20117;-73
2022/03/03 00:18:54;;;;;;;23.92;18.00;;;;;;;2.56;60.23;101942.13;5011253;28;20033;-73
2022/03/03 00:21:20;;;;;;;26.88;18.05;;;;;;;2.55;60.22;101940.41;5011526;28;20045;-73
2022/03/03 00:23:45;;;;;;;25.23;18.50;;;;;;;2.55;61.19;101940.41;5010777;28;20022;-73
2022/03/03 00:26:11;;;;;;;30.65;18.20;;;;;;;2.49;60.51;101942.25;5005869;28;20026;-73
2022/03/03 00:28:37;;;;;;;25.50;18.65;;;;;;;2.49;60.60;101947.44;5010940;28;20367;-73
2022/03/03 00:31:02;;;;;;;24.20;18.10;;;;;;;2.47;60.71;101944.03;5010663;28;20080;-73
2022/03/03 00:33:28;;;;;;;27.40;18.05;;;;;;;2.46;60.80;101934.53;5011303;28;20034;-73
2022/03/03 00:35:56;;;;;;;29.70;19.60;;;;;;;2.46;61.71;101944.94;5011103;28;20061;-73
2022/03/03 00:38:22;;;;;;;29.20;19.08;;;;;;;2.45;60.99;101940.63;5010105;28;20034;-73
2022/03/03 00:40:47;;;;;;;27.98;18.80;;;;;;;2.42;60.29;101943.28;5010705;28;20711;-73
2022/03/03 00:43:13;;;;;;;30.98;20.13;;;;;;;2.40;61.46;101945.06;5010341;28;20104;-72
2022/03/03 00:45:38;;;;;;;28.83;19.92;;;;;;;2.38;61.51;101946.81;5012100;28;20034;-73
2022/03/03 00:48:04;;;;;;;26.40;19.83;;;;;;;2.34;60.67;101940.00;5010510;28;20748;-73
2022/03/03 00:50:30;;;;;;;27.33;20.48;;;;;;;2.30;61.38;101945.28;5010856;28;20076;-73
2022/03/03 00:52:56;;;;;;;28.77;19.58;;;;;;;2.25;61.42;101935.00;5011340;28;20029;-72
2022/03/03 00:55:21;;;;;;;29.02;19.65;;;;;;;2.24;61.58;101933.28;5011772;28;20057;-73
2022/03/03 00:57:47;;;;;;;29.08;20.73;;;;;;;2.25;61.92;101935.00;5012751;28;20494;-73
2022/03/03 01:00:12;;;;;;;28.50;19.60;;;;;;;2.22;61.93;101931.63;5023847;28;20025;-73
2022/03/03 01:02:38;;;;;;;28.48;20.15;;;;;;;2.16;61.16;101930.03;5010243;28;20068;-73
2022/03/03 01:05:05;;;;;;;32.60;20.38;;;;;;;2.10;62.30;101925.81;5013281;28;20028;-73
2022/03/03 01:07:31;;;;;;;27.17;20.60;;;;;;;2.09;62.39;101925.84;5017513;28;20034;-74
2022/03/03 01:09:56;;;;;;;31.65;20.38;;;;;;;2.05;62.24;101924.22;5015160;28;20318;-73
2022/03/03 01:12:21;;;;;;;29.15;20.25;;;;;;;2.01;62.29;101930.34;5020120;28;20467;-73
2022/03/03 01:14:47;;;;;;;28.13;20.77;;;;;;;1.95;62.33;101933.06;5018878;28;20072;-73
2022/03/03 01:17:13;;;;;;;31.10;20.80;;;;;;;1.86;62.37;101942.75;5009103;28;20068;-72
2022/03/03 01:19:39;;;;;;;27.27;20.30;;;;;;;1.81;62.94;101933.34;5005745;28;20470;-73
2022/03/03 01:22:04;;;;;;;27.90;21.17;;;;;;;1.73;63.21;101930.06;5011149;28;20033;-73
2022/03/03 01:24:31;;;;;;;29.70;21.83;;;;;;;1.68;63.16;101932.75;5015744;28;20034;-73
2022/03/03 01:26:56;;;;;;;35.50;22.65;;;;;;;1.61;63.13;101925.97;5009272;28;20474;-73
2022/03/03 01:29:22;;;;;;;31.52;22.33;;;;;;;1.56;64.24;101927.78;5010546;28;20018;-73
2022/03/03 01:31:47;;;;;;;28.80;21.55;;;;;;;1.50;64.37;101930.50;5011853;28;20121;-73
2022/03/03 01:34:13;;;;;;;30.70;22.70;;;;;;;1.47;64.07;101922.78;5004162;28;20040;-72
2022/03/03 01:36:38;;;;;;;28.40;21.23;;;;;;;1.42;64.23;101919.41;5009713;28;20128;-72
2022/03/03 01:39:04;;;;;;;30.52;21.10;;;;;;;1.37;64.83;101921.25;5010091;28;20117;-72
2022/03/03 01:41:30;;;;;;;32.28;20.98;;;;;;;1.33;64.75;101911.81;5009914;28;20030;-72
2022/03/03 01:43:55;;;;;;;27.90;20.88;;;;;;;1.30;64.84;101914.47;5010114;28;20100;-72
2022/03/03 01:46:21;;;;;;;27.08;20.52;;;;;;;1.28;64.60;101898.09;5029037;28;20559;-72
2022/03/03 01:48:46;;;;;;;28.77;20.23;;;;;;;1.29;65.14;101900.66;5028996;28;20519;-72
2022/03/03 01:51:12;;;;;;;27.30;19.75;;;;;;;1.27;65.25;101899.84;5014220;28;20045;-72
2022/03/03 01:53:39;;;;;;;29.27;20.55;;;;;;;1.29;65.48;101897.22;5008570;28;20034;-72
2022/03/03 01:56:06;;;;;;;30.60;20.40;;;;;;;1.29;65.33;101895.47;5008878;28;20033;-72
2022/03/03 01:58:32;;;;;;;27.48;19.95;;;;;;;1.30;65.04;101899.78;5008654;28;20033;-72
2022/03/03 02:00:58;;;;;;;32.35;19.98;;;;;;;1.29;65.05;101902.38;5012388;28;20033;-72
2022/03/03 02:03:23;;;;;;;31.90;20.83;;;;;;;1.28;65.60;101895.50;5008581;28;20037;-72
2022/03/03 02:05:49;;;;;;;30.42;20.58;;;;;;;1.31;65.61;101890.25;5009635;28;20451;-72
2022/03/03 02:08:14;;;;;;;28.67;20.13;;;;;;;1.30;65.37;101889.41;5004352;28;20030;-72
2022/03/03 02:10:40;;;;;;;27.73;20.40;;;;;;;1.30;65.48;101880.78;5008994;28;20030;-73
2022/03/03 02:13:06;;;;;;;28.08;19.80;;;;;;;1.27;65.02;101878.25;5009661;28;20509;-73
2022/03/03 02:15:32;;;;;;;28.50;20.95;;;;;;;1.23;65.50;101874.84;5009520;28;20092;-72
2022/03/03 02:17:57;;;;;;;30.50;21.13;;;;;;;1.21;65.13;101880.06;5021306;28;20025;-73
2022/03/03 02:20:24;;;;;;;27.77;20.08;;;;;;;1.19;65.51;101871.44;5029617;28;20377;-73
2022/03/03 02:22:51;;;;;;;31.10;21.05;;;;;;;1.19;66.31;101867.97;5019675;28;20026;-72
2022/03/03 02:25:17;;;;;;;31.55;20.02;;;;;;;1.18;65.34;101861.09;5013597;28;20490;-73
2022/03/03 02:27:44;;;;;;;31.58;21.17;;;;;;;1.18;65.98;101855.91;5013365;28;20397;-73
2022/03/03 02:30:12;;;;;;;29.50;19.73;;;;;;;1.22;66.06;101860.19;5023408;28;20436;-72
2022/03/03 02:32:38;;;;;;;33.40;20.70;;;;;;;1.24;65.97;101863.59;5033010;28;20516;-72
2022/03/03 02:35:03;;;;;;;32.78;20.98;;;;;;;1.25;66.54;101860.97;5033075;28;20042;-72
2022/03/03 02:37:33;;;;;;;27.88;20.33;;;;;;;1.28;65.07;101864.41;5047945;28;20029;-72
2022/03/03 02:40:00;;;;;;;32.20;21.73;;;;;;;1.26;65.08;101861.81;5023305;28;20546;-72
2022/03/03 02:42:25;;;;;;;32.55;20.83;;;;;;;1.23;66.03;101867.94;5027989;28;20053;-72
2022/03/03 02:44:51;;;;;;;32.88;20.50;;;;;;;1.21;66.01;101864.50;5019804;28;20053;-72
2022/03/03 02:47:16;;;;;;;32.88;20.80;;;;;;;1.16;65.98;101866.31;5032917;28;20120;-73
2022/03/03 02:49:42;;;;;;;30.95;20.45;;;;;;;1.10;66.31;101868.16;5015139;28;20482;-72
2022/03/03 02:52:07;;;;;;;29.52;20.67;;;;;;;1.07;66.89;101871.66;5012285;28;20022;-72
2022/03/03 02:54:32;;;;;;;29.92;21.27;;;;;;;1.00;66.11;101857.13;5013112;28;20022;-73
2022/03/03 02:59:41;;;;;;;30.48;20.48;;;;;;;0.91;67.50;101862.47;5001080;28;20573;-72
2022/03/03 03:02:07;;;;;;;31.88;21.75;;;;;;;0.86;67.43;101861.69;5019590;28;20030;-72
2022/03/03 03:04:32;;;;;;;29.67;20.92;;;;;;;0.79;67.43;101867.84;5029274;28;20080;-73
2022/03/03 03:06:57;;;;;;;31.08;21.85;;;;;;;0.76;67.95;101860.13;5010736;28;20053;-72
2022/03/03 03:09:23;;;;;;;30.90;21.67;;;;;;;0.74;67.74;101856.72;5012628;28;20072;-73
2022/03/03 03:11:48;;;;;;;29.63;21.67;;;;;;;0.68;68.33;101859.41;5012170;28;20033;-73
2022/03/03 03:14:14;;;;;;;28.48;22.02;;;;;;;0.62;68.67;101858.63;5012313;28;20083;-73
2022/03/03 03:16:39;;;;;;;28.27;20.85;;;;;;;0.56;68.38;101853.56;5013809;28;20065;-73
2022/03/03 03:19:04;;;;;;;32.05;22.02;;;;;;;0.51;68.59;101860.56;5011432;28;20026;-72
2022/03/03 03:21:30;;;;;;;29.63;21.52;;;;;;;0.45;69.02;101852.03;5012379;28;20026;-73
2022/03/03 03:23:55;;;;;;;37.20;22.13;;;;;;;0.40;68.67;101856.41;5014041;28;20038;-72
2022/03/03 03:26:20;;;;;;;29.92;21.77;;;;;;;0.37;69.02;101851.28;5011952;28;20033;-73
2022/03/03 03:28:46;;;;;;;31.55;21.95;;;;;;;0.31;70.04;101852.22;5012286;28;20052;-72
2022/03/03 03:31:11;;;;;;;29.73;20.75;;;;;;;0.26;69.57;101848.88;5010931;28;20026;-73
2022/03/03 03:33:37;;;;;;;33.00;23.33;;;;;;;0.22;70.13;101848.06;5007006;28;20597;-72
2022/03/03 03:36:03;;;;;;;33.22;22.42;;;;;;;0.18;69.99;101836.03;5012140;28;20413;-73
2022/03/03 03:38:29;;;;;;;31.80;22.75;;;;;;;0.18;70.07;101838.63;5012314;28;20435;-73
2022/03/03 03:40:54;;;;;;;34.70;22.83;;;;;;;0.17;70.18;101838.66;5011208;28;20032;-72
2022/03/03 03:43:20;;;;;;;37.00;22.33;;;;;;;0.17;69.93;101843.84;5015346;28;20030;-73
2022/03/03 03:45:45;;;;;;;32.47;22.67;;;;;;;0.20;70.40;101838.63;5026701;28;20032;-73
2022/03/03 03:48:11;;;;;;;30.92;22.92;;;;;;;0.19;70.74;101842.06;5012656;28;20470;-73
2022/03/03 03:50:36;;;;;;;32.33;22.95;;;;;;;0.20;70.28;101833.44;5005549;28;20033;-73
2022/03/03 03:53:02;;;;;;;32.50;22.83;;;;;;;0.23;70.97;101829.06;5005156;28;20448;-73
2022/03/03 03:55:28;;;;;;;34.55;23.20;;;;;;;0.25;70.60;101822.13;5026623;28;20029;-73
2022/03/03 03:57:53;;;;;;;32.70;22.67;;;;;;;0.30;70.78;101824.66;5018889;28;20105;-72
2022/03/03 04:00:19;;;;;;;31.88;22.20;;;;;;;0.32;70.05;101820.28;5012214;28;20533;-73
2022/03/03 04:02:45;;;;;;;33.33;22.42;;;;;;;0.31;70.32;101819.44;5010506;28;20096;-73
2022/03/03 04:05:11;;;;;;;30.75;22.30;;;;;;;0.31;70.06;101828.94;5010112;28;20105;-73
2022/03/03 04:07:37;;;;;;;35.80;22.83;;;;;;;0.31;69.90;101824.63;4991500;28;20080;-73
2022/03/03 04:10:03;;;;;;;33.72;22.60;;;;;;;0.31;70.34;101829.78;5001954;28;20034;-73
2022/03/03 04:12:28;;;;;;;34.83;23.02;;;;;;;0.29;70.31;101830.69;5014192;28;20043;-74
2022/03/03 04:14:54;;;;;;;37.55;23.30;;;;;;;0.33;70.06;101834.94;5020495;28;20112;-73
2022/03/03 04:17:19;;;;;;;31.00;22.65;;;;;;;0.34;71.21;101828.88;5021212;28;20280;-73
2022/03/03 04:19:45;;;;;;;35.17;23.58;;;;;;;0.35;70.25;101822.84;5027527;28;20025;-73
2022/03/03 04:22:10;;;;;;;32.75;22.15;;;;;;;0.36;70.18;101818.50;5022131;28;20371;-74
2022/03/03 04:24:35;;;;;;;32.90;22.70;;;;;;;0.35;70.25;101817.66;5011379;28;20121;-74
2022/03/03 04:27:01;;;;;;;36.50;22.38;;;;;;;0.32;70.40;101810.78;5010326;28;20026;-74
2022/03/03 04:29:26;;;;;;;34.92;23.00;;;;;;;0.32;70.20;101815.97;5009398;28;20113;-73
2022/03/03 04:31:53;;;;;;;31.48;22.05;;;;;;;0.31;70.15;101806.50;5012108;28;20448;-73
2022/03/03 04:34:19;;;;;;;33.25;23.15;;;;;;;0.33;70.37;101803.88;5012949;28;20064;-73
2022/03/03 04:36:45;;;;;;;32.25;21.73;;;;;;;0.35;70.20;101802.13;5017680;28;20057;-74
2022/03/03 04:39:10;;;;;;;33.72;22.20;;;;;;;0.38;70.37;101807.25;5020885;28;20029;-73
2022/03/03 04:41:35;;;;;;;32.80;22.27;;;;;;;0.37;69.92;101802.94;5010058;28;20079;-73
2022/03/03 04:44:02;;;;;;;32.03;22.65;;;;;;;0.39;70.24;101798.59;5009172;28;20046;-73
2022/03/03 04:46:27;;;;;;;31.60;22.17;;;;;;;0.39;70.28;101796.00;5027945;28;20025;-73
2022/03/03 04:48:59;;;;;;;31.95;21.67;;;;;;;0.38;70.11;101794.31;5021038;28;20394;-73
2022/03/03 04:51:24;;;;;;;32.27;22.33;;;;;;;0.37;69.95;101790.00;5025346;28;20034;-74
2022/03/03 04:53:49;;;;;;;32.00;21.83;;;;;;;0.36;70.28;101788.31;5013190;28;20033;-73
2022/03/03 04:56:16;;;;;;;32.15;21.95;;;;;;;0.38;70.10;101781.38;5010827;28;20124;-73
2022/03/03 04:58:42;;;;;;;31.85;22.48;;;;;;;0.38;70.09;101786.53;5009772;28;20021;-73
2022/03/03 05:01:07;;;;;;;33.33;22.30;;;;;;;0.40;70.11;101789.09;5013212;28;20386;-73
2022/03/03 05:03:32;;;;;;;31.30;21.75;;;;;;;0.39;69.53;101785.66;5011085;28;20032;-74
2022/03/03 05:05:58;;;;;;;32.42;21.50;;;;;;;0.40;69.20;101790.00;5028275;28;20021;-74
2022/03/03 05:08:23;;;;;;;33.70;23.02;;;;;;;0.39;69.24;101790.84;5029129;28;20026;-73
2022/03/03 05:10:48;;;;;;;36.83;22.10;;;;;;;0.36;69.34;101792.63;5039130;28;20022;-74
2022/03/03 05:13:14;;;;;;;29.58;21.38;;;;;;;0.32;69.42;101795.25;5006351;28;20133;-73
2022/03/03 05:15:39;;;;;;;32.78;21.13;;;;;;;0.27;69.40;101798.81;5009661;28;20044;-74
2022/03/03 05:18:05;;;;;;;30.25;20.70;;;;;;;0.23;69.14;101802.34;5012978;28;20021;-73
2022/03/03 05:20:30;;;;;;;29.17;21.27;;;;;;;0.16;69.88;101800.72;5015763;28;20316;-72
2022/03/03 05:22:55;;;;;;;31.60;21.83;;;;;;;0.10;70.50;101799.09;5013008;28;20323;-73
2022/03/03 05:25:22;;;;;;;30.65;20.88;;;;;;;0.05;70.04;101800.91;5010190;28;20485;-72
2022/03/03 05:27:47;;;;;;;32.25;23.02;;;;;;;-0.02;70.48;101799.25;5008974;28;20030;-73
2022/03/03 05:30:12;;;;;;;38.75;23.83;;;;;;;-0.06;70.63;101795.88;5004785;28;20445;-72
2022/03/03 05:32:38;;;;;;;34.97;23.90;;;;;;;-0.12;70.87;101795.97;5009385;28;20123;-73
2022/03/03 05:35:04;;;;;;;32.67;22.63;;;;;;;-0.16;70.74;101804.63;5010089;28;20068;-72
2022/03/03 05:37:30;;;;;;;33.75;23.20;;;;;;;-0.20;71.32;101802.13;5010523;28;20084;-72
2022/03/03 05:39:55;;;;;;;35.25;23.15;;;;;;;-0.21;71.60;101805.59;5009597;28;20861;-73
2022/03/03 05:42:22;;;;;;;33.97;22.75;;;;;;;-0.25;71.46;101798.75;5010299;28;20061;-72
2022/03/03 05:44:48;;;;;;;32.05;22.95;;;;;;;-0.31;71.78;101804.88;5016705;28;20584;-72
2022/03/03 05:47:14;;;;;;;31.83;22.23;;;;;;;-0.37;71.99;101803.22;5018055;28;20121;-73
2022/03/03 05:49:41;;;;;;;33.53;22.05;;;;;;;-0.40;72.50;101804.97;5008669;28;20105;-73
2022/03/03 05:52:09;;;;;;;39.42;25.05;;;;;;;-0.38;72.96;101805.84;5025288;28;20431;-73
2022/03/03 05:54:35;;;;;;;59.38;36.10;;;;;;;-0.35;72.79;101808.38;5009402;28;20105;-73
2022/03/03 05:57:02;;;;;;;95.78;52.42;;;;;;;-0.32;72.80;101803.16;5011852;28;20055;-73
2022/03/03 05:59:32;;;;;;;82.93;48.85;;;;;;;-0.28;72.46;101809.13;5013557;28;20037;-73
2022/03/03 06:01:58;;;;;;;66.95;41.05;;;;;;;-0.27;72.56;101811.69;5026297;28;20512;-73
2022/03/03 06:04:27;;;;;;;72.80;42.13;;;;;;;-0.26;72.66;101800.47;5019656;28;20033;-73
2022/03/03 06:07:00;;;;;;;67.28;39.63;;;;;;;-0.27;72.58;101801.34;5013909;28;20455;-72
2022/03/03 06:09:30;;;;;;;60.40;35.08;;;;;;;-0.25;73.04;101806.50;5011861;28;20050;-73
2022/03/03 06:12:03;;;;;;;53.30;31.00;;;;;;;-0.26;72.84;101795.31;5013509;28;20033;-73
2022/03/03 06:14:39;;;;;;;42.92;25.17;;;;;;;-0.27;72.50;101800.50;5013652;28;20570;-73
2022/03/03 06:17:04;;;;;;;38.83;23.27;;;;;;;-0.30;72.76;101796.22;5012960;28;20030;-73
2022/03/03 06:19:33;;;;;;;34.83;22.42;;;;;;;-0.32;72.29;101793.66;5013851;28;20029;-73
2022/03/03 06:21:59;;;;;;;34.70;22.45;;;;;;;-0.32;72.36;101787.66;5007585;28;20113;-73
2022/03/03 06:24:24;;;;;;;37.30;23.23;;;;;;;-0.34;72.46;101785.09;5013186;28;20482;-73
2022/03/03 06:26:49;;;;;;;32.72;22.48;;;;;;;-0.32;72.55;101792.81;5013308;28;20029;-72
2022/03/03 06:29:15;;;;;;;35.50;23.40;;;;;;;-0.30;72.38;101798.81;5026670;28;20478;-73
2022/03/03 06:31:40;;;;;;;31.65;22.42;;;;;;;-0.30;72.14;101796.22;5012481;28;20040;-73
2022/03/03 06:34:07;;;;;;;35.17;22.02;;;;;;;-0.29;72.66;101797.94;5012270;28;20081;-72
2022/03/03 06:36:33;;;;;;;36.63;22.65;;;;;;;-0.28;72.58;101804.81;5012020;28;20100;-73
2022/03/03 06:38:58;;;;;;;33.88;21.08;;;;;;;-0.27;72.33;101806.53;5010072;28;20025;-73
2022/03/03 06:41:25;;;;;;;31.55;22.17;;;;;;;-0.27;72.16;101806.53;5012281;28;20441;-73
2022/03/03 06:43:51;;;;;;;32.13;22.20;;;;;;;-0.28;71.48;101809.13;5011834;28;20034;-72
2022/03/03 06:46:18;;;;;;;32.67;21.67;;;;;;;-0.33;71.82;101802.31;5029854;28;20026;-74
2022/03/03 06:48:43;;;;;;;30.40;21.65;;;;;;;-0.36;71.98;101806.66;5018823;28;20438;-73
2022/03/03 06:51:15;;;;;;;32.95;22.85;;;;;;;-0.34;72.33;101815.25;5006744;28;20018;-74
2022/03/03 06:53:44;;;;;;;31.42;20.75;;;;;;;-0.34;72.41;101812.66;5012985;28;20085;-74
2022/03/03 06:56:11;;;;;;;32.05;22.27;;;;;;;-0.32;72.19;101819.53;5012119;28;20443;-74
2022/03/03 06:58:37;;;;;;;33.67;21.58;;;;;;;-0.29;72.40;101813.47;5018455;28;20052;-74
2022/03/03 07:01:07;;;;;;;31.52;21.48;;;;;;;-0.30;72.31;101816.91;5031948;28;20059;-74
2022/03/03 07:03:33;;;;;;;30.92;21.75;;;;;;;-0.28;72.39;101825.50;5017384;28;20034;-75
2022/03/03 07:05:58;;;;;;;37.90;23.20;;;;;;;-0.27;72.14;101824.63;5009872;28;20057;-75
2022/03/03 07:08:24;;;;;;;34.55;23.95;;;;;;;-0.24;72.10;101827.16;5009626;28;20049;-74
2022/03/03 07:10:49;;;;;;;33.90;23.35;;;;;;;-0.24;71.52;101827.16;5010112;28;20026;-74
2022/03/03 07:13:18;;;;;;;36.40;23.50;;;;;;;-0.25;71.88;101830.63;5010903;28;20036;-74
2022/03/03 07:15:52;;;;;;;32.50;22.15;;;;;;;-0.22;72.13;101835.75;5011801;28;20080;-73
2022/03/03 07:18:23;;;;;;;35.38;22.02;;;;;;;-0.20;72.37;101833.16;5010998;28;20022;-74
2022/03/03 07:21:04;;;;;;;36.42;22.50;;;;;;;-0.17;72.09;101831.38;5011728;28;20437;-74
2022/03/03 07:23:38;;;;;;;34.13;21.83;;;;;;;-0.16;71.48;101833.09;5010584;28;20021;-73
2022/03/03 07:26:08;;;;;;;32.25;21.67;;;;;;;-0.11;71.64;101826.13;5007452;28;20034;-74
2022/03/03 07:28:34;;;;;;;30.40;21.50;;;;;;;-0.06;72.21;101829.50;5014211;28;20061;-73
2022/03/03 07:31:03;;;;;;;36.65;23.02;;;;;;;-0.01;71.72;101835.44;5011883;28;20018;-74
2022/03/03 07:33:56;;;;;;;36.70;23.00;;;;;;;0.07;71.70;101837.09;5010277;28;20026;-74
2022/03/03 07:36:27;;;;;;;35.05;22.75;;;;;;;0.13;71.58;101831.81;5010785;28;20421;-74
2022/03/03 07:38:58;;;;;;;33.35;22.27;;;;;;;0.19;71.36;101827.41;5012101;28;20099;-74
2022/03/03 07:41:25;;;;;;;35.35;22.80;;;;;;;0.26;70.89;101834.19;5010104;28;20208;-74
2022/03/03 07:43:52;;;;;;;34.53;22.10;;;;;;;0.34;70.80;101835.78;5012145;28;20430;-74
2022/03/03 07:46:17;;;;;;;34.25;21.17;;;;;;;0.43;70.29;101836.53;5017730;28;20083;-74
2022/03/03 07:48:45;;;;;;;34.38;21.92;;;;;;;0.51;70.07;101829.50;5011983;28;20855;-74
2022/03/03 07:51:10;;;;;;;36.42;21.33;;;;;;;0.59;69.42;101826.75;5011832;28;20030;-74
2022/03/03 07:53:39;;;;;;;38.70;22.02;;;;;;;0.70;69.11;101834.34;5011371;28;20080;-74
2022/03/03 07:56:07;;;;;;;32.65;19.83;;;;;;;0.78;68.33;101827.28;5011538;28;20041;-74
2022/03/03 07:58:38;;;;;;;33.55;20.98;;;;;;;0.89;69.02;101835.75;5016282;28;20033;-74
2022/03/03 08:01:06;;;;;;;36.05;21.65;;;;;;;0.98;68.50;101832.13;4990308;28;20030;-74
2022/03/03 08:03:31;;;;;;;35.22;21.42;;;;;;;1.07;67.75;101840.56;5004981;28;20061;-73
2022/03/03 08:05:58;;;;;;;29.58;19.70;;;;;;;1.17;66.50;101831.72;5023696;28;20477;-73
2022/03/03 08:08:32;;;;;;;34.83;19.92;;;;;;;1.27;67.03;101834.16;5014680;28;20034;-74
2022/03/03 08:11:04;;;;;;;40.03;20.20;;;;;;;1.37;66.58;101827.91;5030413;28;20025;-74
2022/03/03 08:13:30;;;;;;;35.88;21.17;;;;;;;1.45;65.62;101826.00;5018997;28;20113;-74
2022/03/03 08:15:56;;;;;;;31.45;20.15;;;;;;;1.55;66.18;101827.53;5012041;28;20539;-73
2022/03/03 08:18:26;;;;;;;31.75;20.05;;;;;;;1.65;65.39;101831.66;5010673;28;20109;-74
2022/03/03 08:20:51;;;;;;;28.08;19.23;;;;;;;1.76;64.60;101834.88;5012042;28;20033;-74
2022/03/03 08:23:20;;;;;;;29.95;19.52;;;;;;;1.85;64.13;101828.59;5029508;28;20401;-74
2022/03/03 08:25:46;;;;;;;30.00;19.63;;;;;;;1.94;64.77;101827.53;5024623;28;20029;-75
2022/03/03 08:28:12;;;;;;;31.23;19.85;;;;;;;2.04;64.00;101821.28;5007461;28;20029;-75
2022/03/03 08:30:37;;;;;;;31.80;20.45;;;;;;;2.12;63.94;101819.34;5009377;28;20022;-75
2022/03/03 08:33:20;;;;;;;28.20;18.63;;;;;;;2.21;62.80;101819.13;5009362;28;20030;-75
2022/03/03 08:35:54;;;;;;;33.17;19.10;;;;;;;2.31;62.92;101825.81;5006139;28;20077;-75
2022/03/03 08:38:52;;;;;;;30.25;19.35;;;;;;;2.40;64.08;101825.59;5009512;28;20068;-75
2022/03/03 08:41:21;;;;;;;31.80;18.98;;;;;;;2.51;62.31;101828.78;5008748;28;20095;-74
2022/03/03 08:43:51;;;;;;;32.17;19.58;;;;;;;2.60;62.45;101834.63;5007674;28;20021;-74
2022/03/03 08:46:23;;;;;;;27.50;18.90;;;;;;;2.69;61.64;101831.81;4993719;28;20022;-74
2022/03/03 08:48:49;;;;;;;;;;;;;;;2.76;64.03;101834.19;5010238;28;20029;-75
2022/03/03 08:51:16;;;;;;;29.30;18.58;;;;;;;2.87;61.87;101831.34;5009082;28;19917;-74
2022/03/03 08:53:41;;;;;;;30.75;19.13;;;;;;;2.97;61.62;101835.41;5008443;28;20056;-75
2022/03/03 08:56:08;;;;;;;30.15;19.02;;;;;;;3.06;61.06;101827.34;5009261;28;20057;-75
2022/03/03 08:58:34;;;;;;;27.70;18.83;;;;;;;3.20;60.32;101826.97;5009247;28;20029;-74
2022/03/03 09:00:59;;;;;;;26.58;17.48;;;;;;;3.28;60.03;101825.03;5009639;28;20025;-74
2022/03/03 09:03:25;;;;;;;26.10;17.63;;;;;;;3.38;58.50;101825.59;5009487;28;20433;-75
2022/03/03 09:05:54;;;;;;;26.33;17.48;;;;;;;3.49;58.16;101826.16;5024241;28;20038;-74
2022/03/03 09:08:19;;;;;;;28.95;17.25;;;;;;;3.58;58.32;101831.06;5007635;28;20121;-75
2022/03/03 09:10:45;;;;;;;27.48;16.85;;;;;;;3.67;58.31;101832.59;5009194;28;20108;-75
2022/03/03 09:13:10;;;;;;;27.38;18.00;;;;;;;3.76;57.20;101838.38;5010012;28;20034;-75
2022/03/03 09:15:36;;;;;;;25.40;17.13;;;;;;;3.87;56.92;101831.97;5010517;28;20032;-76
2022/03/03 09:18:02;;;;;;;27.05;16.75;;;;;;;3.95;57.97;101825.63;5009483;28;20382;-75
2022/03/03 09:20:27;;;;;;;29.08;17.95;;;;;;;4.08;57.49;101833.94;5010393;28;20034;-75
2022/03/03 09:22:54;;;;;;;24.67;16.65;;;;;;;4.17;57.36;101828.44;5010211;28;20037;-75
2022/03/03 09:25:19;;;;;;;25.80;16.83;;;;;;;4.27;56.04;101816.81;5008416;28;20022;-74
2022/03/03 09:27:45;;;;;;;25.15;16.17;;;;;;;4.37;55.59;101818.22;5024784;28;20025;-75
2022/03/03 09:30:11;;;;;;;26.50;17.17;;;;;;;4.48;56.62;101811.81;5008994;28;20104;-75
2022/03/03 09:32:38;;;;;;;27.65;17.20;;;;;;;4.60;55.17;101817.47;5008912;28;20057;-75
2022/03/03 09:35:04;;;;;;;23.00;16.52;;;;;;;4.71;55.38;101811.88;5009534;28;20072;-74
2022/03/03 09:37:29;;;;;;;27.73;16.77;;;;;;;4.83;54.48;101814.09;5009794;28;20038;-75
2022/03/03 09:39:54;;;;;;;25.80;16.58;;;;;;;4.93;54.53;101812.00;5009372;28;20028;-74
2022/03/03 09:42:20;;;;;;;26.13;16.95;;;;;;;4.99;54.42;101807.41;5009909;28;20065;-75
2022/03/03 09:44:46;;;;;;;22.95;16.45;;;;;;;5.10;53.34;101808.78;5016016;28;20013;-75
2022/03/03 09:47:12;;;;;;;24.20;16.38;;;;;;;5.18;53.90;101806.75;5028625;28;20564;-75
2022/03/03 09:49:38;;;;;;;22.85;16.20;;;;;;;5.29;52.81;101799.41;5029455;28;20105;-75
2022/03/03 09:52:16;;;;;;;24.63;16.48;;;;;;;5.41;53.96;101798.94;5029555;28;20021;-75
2022/03/03 09:54:43;;;;;;;23.48;16.25;;;;;;;5.50;52.49;101803.81;5028701;28;20029;-75
2022/03/03 09:57:08;;;;;;;25.05;16.17;;;;;;;5.57;52.66;101794.84;5029676;28;20783;-75
2022/03/03 09:59:34;;;;;;;25.80;16.60;;;;;;;5.66;52.41;101799.75;5010228;28;20105;-75
2022/03/03 10:02:06;;;;;;;22.52;16.45;;;;;;;5.77;52.51;101803.69;5009186;28;20030;-75
2022/03/03 10:04:33;;;;;;;25.95;16.38;;;;;;;5.90;52.26;101804.94;5009970;28;20034;-75
2022/03/03 10:07:06;;;;;;;24.73;16.42;;;;;;;6.01;51.31;101800.16;5008833;28;20022;-75
2022/03/03 10:09:33;;;;;;;21.45;14.98;;;;;;;6.13;50.55;101810.13;5009936;28;20042;-75
2022/03/03 10:12:03;;;;;;;22.08;14.60;;;;;;;6.25;49.81;101801.78;5010737;28;20065;-75
2022/03/03 10:14:32;;;;;;;19.98;15.07;;;;;;;6.34;50.10;101797.94;5029072;28;20393;-75
2022/03/03 10:16:58;;;;;;;20.70;14.57;;;;;;;6.42;49.53;101798.50;5029411;28;20032;-75
2022/03/03 10:19:23;;;;;;;23.67;15.05;;;;;;;6.50;48.52;101792.94;5029422;28;20025;-75
2022/03/03 10:21:49;;;;;;;19.27;14.50;;;;;;;6.60;48.12;101794.25;5025337;28;20025;-75
2022/03/03 10:24:21;;;;;;;21.60;14.73;;;;;;;6.70;49.14;101790.31;5009411;28;20417;-75
2022/03/03 10:26:56;;;;;;;20.20;15.38;;;;;;;6.81;49.27;101782.88;5008115;28;20030;-75
2022/03/03 10:29:22;;;;;;;21.20;14.55;;;;;;;6.91;48.08;101781.56;5008833;28;20058;-75
2022/03/03 10:31:52;;;;;;;19.98;14.57;;;;;;;7.03;47.70;101789.78;5009234;28;20026;-75
2022/03/03 10:34:20;;;;;;;22.17;15.55;;;;;;;7.15;47.77;101777.00;5009452;28;20034;-74
2022/03/03 10:37:07;;;;;;;22.33;15.05;;;;;;;7.28;48.79;101776.47;5008332;28;20026;-74
2022/03/03 10:40:03;;;;;;;22.40;15.57;;;;;;;7.41;48.92;101777.59;5008424;28;20022;-75
2022/03/03 10:42:28;;;;;;;22.63;14.77;;;;;;;7.53;47.58;101775.25;5008728;28;20026;-75
2022/03/03 10:45:16;;;;;;;22.05;15.00;;;;;;;7.65;48.52;101770.38;5020016;28;20140;-75
2022/03/03 10:47:57;;;;;;;21.15;14.02;;;;;;;7.77;46.05;101775.03;5032319;28;20545;-74
2022/03/03 10:50:22;;;;;;;21.52;14.07;;;;;;;7.90;46.76;101772.66;5011343;28;20057;-75
2022/03/03 10:52:48;;;;;;;20.38;13.88;;;;;;;7.99;44.71;101769.59;5019645;28;20073;-74
2022/03/03 10:55:16;;;;;;;21.33;13.73;;;;;;;8.08;43.97;101770.03;5025370;28;20029;-74
2022/03/03 10:57:57;;;;;;;21.15;14.15;;;;;;;8.16;44.83;101767.88;5043082;28;20059;-74
2022/03/03 11:00:25;;;;;;;19.40;14.23;;;;;;;8.30;44.21;101771.59;4993535;28;20058;-74
2022/03/03 11:02:55;;;;;;;18.60;13.02;;;;;;;8.43;45.08;101767.47;4993251;28;20081;-74
2022/03/03 11:05:22;;;;;;;21.02;14.15;;;;;;;8.67;45.30;101762.75;4992831;28;20301;-74
2022/03/03 11:07:49;;;;;;;18.98;13.48;;;;;;;8.80;42.99;101763.78;5012202;28;20025;-74
2022/03/03 11:10:17;;;;;;;18.73;13.23;;;;;;;8.95;42.37;101760.41;5012031;28;20038;-74
2022/03/03 11:12:43;;;;;;;17.20;12.60;;;;;;;9.04;41.86;101757.28;5012387;28;20080;-74
2022/03/03 11:15:10;;;;;;;17.27;11.93;;;;;;;9.17;41.08;101757.47;5011201;28;20547;-74
2022/03/03 11:17:35;;;;;;;16.92;12.55;;;;;;;9.33;42.28;101750.47;5012328;28;20034;-74
2022/03/03 11:20:02;;;;;;;17.13;12.13;;;;;;;9.41;41.31;101761.41;5012224;28;20060;-74